sensor_id;sensor_type;location;lat;lon;timestamp;pressure;altitude;pressure_sealevel;temperature;humidity
65800;BME280;52544;48.116;11.660;2023-02-17T00:00:46;96492.63;;;8.61;47.99
65800;BME280;52544;48.116;11.660;2023-02-17T00:03:12;96480.56;;;8.57;48.00
65800;BME280;52544;48.116;11.660;2023-02-17T00:05:38;96482.47;;;8.55;48.14
65800;BME280;52544;48.116;11.660;2023-02-17T00:08:04;96485.84;;;8.57;48.26
65800;BME280;52544;48.116;11.660;2023-02-17T00:10:29;96478.69;;;8.59;47.92
65800;BME280;52544;48.116;11.660;2023-02-17T00:12:55;96476.63;;;8.50;48.41
65800;BME280;52544;48.116;11.660;2023-02-17T00:15:20;96484.84;;;8.45;48.62
65800;BME280;52544;48.116;11.660;2023-02-17T00:17:45;96490.19;;;8.44;48.37
65800;BME280;52544;48.116;11.660;2023-02-17T00:20:11;96490.47;;;8.39;48.83
65800;BME280;52544;48.116;11.660;2023-02-17T00:22:36;96487.94;;;8.38;48.69
65800;BME280;52544;48.116;11.660;2023-02-17T00:25:02;96478.31;;;8.37;48.82
65800;BME280;52544;48.116;11.660;2023-02-17T00:27:27;96488.88;;;8.37;48.67
65800;BME280;52544;48.116;11.660;2023-02-17T00:29:53;96481.88;;;8.36;48.60
65800;BME280;52544;48.116;11.660;2023-02-17T00:32:18;96481.88;;;8.36;48.62
65800;BME280;52544;48.116;11.660;2023-02-17T00:34:43;96482.69;;;8.38;48.49
65800;BME280;52544;48.116;11.660;2023-02-17T00:37:09;96483.78;;;8.34;48.74
65800;BME280;52544;48.116;11.660;2023-02-17T00:39:34;96484.72;;;8.33;48.61
65800;BME280;52544;48.116;11.660;2023-02-17T00:42:00;96481.31;;;8.31;48.92
65800;BME280;52544;48.116;11.660;2023-02-17T00:44:25;96481.13;;;8.34;48.60
65800;BME280;52544;48.116;11.660;2023-02-17T00:46:51;96483.66;;;8.35;48.74
65800;BME280;52544;48.116;11.660;2023-02-17T00:49:19;96482.28;;;8.30;49.04
65800;BME280;52544;48.116;11.660;2023-02-17T00:51:45;96485.19;;;8.25;49.17
65800;BME280;52544;48.116;11.660;2023-02-17T00:54:11;96485.09;;;8.26;48.91
65800;BME280;52544;48.116;11.660;2023-02-17T00:56:37;96486.78;;;8.27;48.96
65800;BME280;52544;48.116;11.660;2023-02-17T00:59:02;96480.84;;;8.24;48.91
65800;BME280;52544;48.116;11.660;2023-02-17T01:01:28;96480.00;;;8.23;49.04
65800;BME280;52544;48.116;11.660;2023-02-17T01:03:54;96483.41;;;8.25;49.13
65800;BME280;52544;48.116;11.660;2023-02-17T01:06:25;96472.28;;;8.20;49.09
65800;BME280;52544;48.116;11.660;2023-02-17T01:08:51;96478.13;;;8.25;48.95
65800;BME280;52544;48.116;11.660;2023-02-17T01:11:21;96481.91;;;8.21;49.31
65800;BME280;52544;48.116;11.660;2023-02-17T01:13:47;96486.41;;;8.19;49.70
65800;BME280;52544;48.116;11.660;2023-02-17T01:16:19;96482.19;;;8.17;49.29
65800;BME280;52544;48.116;11.660;2023-02-17T01:18:44;96481.22;;;8.18;49.30
65800;BME280;52544;48.116;11.660;2023-02-17T01:21:24;96476.25;;;8.13;49.33
65800;BME280;52544;48.116;11.660;2023-02-17T01:23:52;96483.59;;;8.08;50.09
65800;BME280;52544;48.116;11.660;2023-02-17T01:26:20;96482.09;;;8.04;49.63
65800;BME280;52544;48.116;11.660;2023-02-17T01:28:46;96477.16;;;7.98;50.61
65800;BME280;52544;48.116;11.660;2023-02-17T01:31:12;96476.72;;;7.91;50.36
65800;BME280;52544;48.116;11.660;2023-02-17T01:33:39;96465.50;;;7.73;51.01
65800;BME280;52544;48.116;11.660;2023-02-17T01:36:06;96466.25;;;7.75;51.02
65800;BME280;52544;48.116;11.660;2023-02-17T01:38:33;96467.47;;;7.70;51.22
65800;BME280;52544;48.116;11.660;2023-02-17T01:40:59;96465.00;;;7.67;51.51
65800;BME280;52544;48.116;11.660;2023-02-17T01:43:25;96464.34;;;7.63;51.17
65800;BME280;52544;48.116;11.660;2023-02-17T01:45:55;96465.47;;;7.59;50.97
65800;BME280;52544;48.116;11.660;2023-02-17T01:48:44;96456.53;;;7.62;51.41
65800;BME280;52544;48.116;11.660;2023-02-17T01:51:25;96461.13;;;7.58;51.45
65800;BME280;52544;48.116;11.660;2023-02-17T01:53:56;96459.25;;;7.60;51.51
65800;BME280;52544;48.116;11.660;2023-02-17T01:56:24;96457.88;;;7.69;50.98
65800;BME280;52544;48.116;11.660;2023-02-17T01:58:54;96457.22;;;7.65;51.67
65800;BME280;52544;48.116;11.660;2023-02-17T02:01:21;96459.63;;;7.68;51.33
65800;BME280;52544;48.116;11.660;2023-02-17T02:03:50;96461.16;;;7.72;51.33
65800;BME280;52544;48.116;11.660;2023-02-17T02:06:19;96463.22;;;7.67;51.77
65800;BME280;52544;48.116;11.660;2023-02-17T02:08:58;96455.41;;;7.66;51.65
65800;BME280;52544;48.116;11.660;2023-02-17T02:11:26;96452.50;;;7.70;51.22
65800;BME280;52544;48.116;11.660;2023-02-17T02:13:51;96459.28;;;7.74;50.90
65800;BME280;52544;48.116;11.660;2023-02-17T02:16:22;96448.75;;;7.74;51.32
65800;BME280;52544;48.116;11.660;2023-02-17T02:22:00;96454.84;;;7.75;51.35
65800;BME280;52544;48.116;11.660;2023-02-17T02:30:01;96452.13;;;7.76;51.08
65800;BME280;52544;48.116;11.660;2023-02-17T02:37:57;96458.44;;;7.74;51.62
65800;BME280;52544;48.116;11.660;2023-02-17T02:40:28;96456.72;;;7.73;51.90
65800;BME280;52544;48.116;11.660;2023-02-17T02:42:57;96466.41;;;7.72;52.21
65800;BME280;52544;48.116;11.660;2023-02-17T02:45:24;96465.28;;;7.76;51.96
65800;BME280;52544;48.116;11.660;2023-02-17T02:47:54;96458.72;;;7.84;52.06
65800;BME280;52544;48.116;11.660;2023-02-17T03:01:50;96450.44;;;7.90;51.96
65800;BME280;52544;48.116;11.660;2023-02-17T03:07:17;96445.19;;;8.04;51.86
65800;BME280;52544;48.116;11.660;2023-02-17T03:09:51;96450.00;;;8.12;51.80
65800;BME280;52544;48.116;11.660;2023-02-17T03:12:19;96442.72;;;8.15;51.50
65800;BME280;52544;48.116;11.660;2023-02-17T03:14:46;96424.63;;;8.23;51.52
65800;BME280;52544;48.116;11.660;2023-02-17T03:17:12;96438.28;;;8.30;50.79
65800;BME280;52544;48.116;11.660;2023-02-17T03:19:38;96430.06;;;8.35;50.72
65800;BME280;52544;48.116;11.660;2023-02-17T03:22:08;96436.88;;;8.39;50.58
65800;BME280;52544;48.116;11.660;2023-02-17T03:24:34;96428.88;;;8.40;50.65
65800;BME280;52544;48.116;11.660;2023-02-17T03:27:00;96428.38;;;8.48;50.39
65800;BME280;52544;48.116;11.660;2023-02-17T03:29:25;96430.28;;;8.46;50.79
65800;BME280;52544;48.116;11.660;2023-02-17T03:31:51;96418.91;;;8.45;50.66
65800;BME280;52544;48.116;11.660;2023-02-17T03:34:16;96423.94;;;8.48;50.35
65800;BME280;52544;48.116;11.660;2023-02-17T03:36:42;96417.47;;;8.54;50.19
65800;BME280;52544;48.116;11.660;2023-02-17T03:39:07;96421.00;;;8.53;50.48
65800;BME280;52544;48.116;11.660;2023-02-17T03:41:32;96418.00;;;8.59;50.11
65800;BME280;52544;48.116;11.660;2023-02-17T03:43:58;96416.88;;;8.63;49.86
65800;BME280;52544;48.116;11.660;2023-02-17T03:46:23;96420.88;;;8.69;49.65
65800;BME280;52544;48.116;11.660;2023-02-17T03:48:49;96421.72;;;8.69;49.72
65800;BME280;52544;48.116;11.660;2023-02-17T03:51:19;96416.25;;;8.72;49.79
65800;BME280;52544;48.116;11.660;2023-02-17T03:53:46;96414.56;;;8.71;49.50
65800;BME280;52544;48.116;11.660;2023-02-17T03:56:13;96407.38;;;8.73;49.43
65800;BME280;52544;48.116;11.660;2023-02-17T03:58:39;96418.59;;;8.77;49.08
65800;BME280;52544;48.116;11.660;2023-02-17T04:01:06;96412.28;;;8.80;48.91
65800;BME280;52544;48.116;11.660;2023-02-17T04:03:33;96410.69;;;8.77;49.34
65800;BME280;52544;48.116;11.660;2023-02-17T04:05:59;96406.06;;;8.81;49.01
65800;BME280;52544;48.116;11.660;2023-02-17T04:08:24;96406.59;;;8.86;49.04
65800;BME280;52544;48.116;11.660;2023-02-17T04:10:54;96409.53;;;8.81;49.10
65800;BME280;52544;48.116;11.660;2023-02-17T04:13:20;96410.91;;;8.87;49.17
65800;BME280;52544;48.116;11.660;2023-02-17T04:15:46;96413.56;;;8.87;48.64
65800;BME280;52544;48.116;11.660;2023-02-17T04:18:13;96410.91;;;8.87;48.89
65800;BME280;52544;48.116;11.660;2023-02-17T04:20:38;96406.78;;;8.83;49.19
65800;BME280;52544;48.116;11.660;2023-02-17T04:23:04;96401.97;;;8.89;49.07
65800;BME280;52544;48.116;11.660;2023-02-17T04:25:29;96400.91;;;8.92;48.49
65800;BME280;52544;48.116;11.660;2023-02-17T04:27:54;96404.50;;;8.91;48.75
65800;BME280;52544;48.116;11.660;2023-02-17T04:30:20;96392.25;;;8.90;49.05
65800;BME280;52544;48.116;11.660;2023-02-17T04:32:45;96399.56;;;8.99;48.07
65800;BME280;52544;48.116;11.660;2023-02-17T04:35:11;96396.09;;;9.11;47.84
65800;BME280;52544;48.116;11.660;2023-02-17T04:37:36;96403.91;;;9.13;47.85
65800;BME280;52544;48.116;11.660;2023-02-17T04:40:02;96397.16;;;9.21;48.04
65800;BME280;52544;48.116;11.660;2023-02-17T04:42:28;96402.44;;;9.21;47.96
65800;BME280;52544;48.116;11.660;2023-02-17T04:44:53;96398.31;;;9.17;47.84
65800;BME280;52544;48.116;11.660;2023-02-17T04:47:19;96401.63;;;9.21;47.97
65800;BME280;52544;48.116;11.660;2023-02-17T04:49:44;96395.69;;;9.17;47.79
65800;BME280;52544;48.116;11.660;2023-02-17T04:52:09;96395.28;;;9.23;47.79
65800;BME280;52544;48.116;11.660;2023-02-17T04:54:35;96386.41;;;9.24;47.48
65800;BME280;52544;48.116;11.660;2023-02-17T04:57:00;96380.50;;;9.34;47.32
65800;BME280;52544;48.116;11.660;2023-02-17T04:59:26;96382.81;;;9.38;47.08
65800;BME280;52544;48.116;11.660;2023-02-17T05:01:51;96381.59;;;9.44;46.77
65800;BME280;52544;48.116;11.660;2023-02-17T05:04:16;96384.88;;;9.47;46.85
65800;BME280;52544;48.116;11.660;2023-02-17T05:06:42;96364.91;;;9.56;46.58
65800;BME280;52544;48.116;11.660;2023-02-17T05:09:07;96378.44;;;9.64;46.87
65800;BME280;52544;48.116;11.660;2023-02-17T05:11:33;96374.31;;;9.60;46.54
65800;BME280;52544;48.116;11.660;2023-02-17T05:13:58;96365.28;;;9.63;46.76
65800;BME280;52544;48.116;11.660;2023-02-17T05:16:24;96373.53;;;9.71;46.57
65800;BME280;52544;48.116;11.660;2023-02-17T05:18:49;96373.88;;;9.66;46.83
65800;BME280;52544;48.116;11.660;2023-02-17T05:21:15;96374.38;;;9.71;45.96
65800;BME280;52544;48.116;11.660;2023-02-17T05:23:40;96373.44;;;9.72;46.72
65800;BME280;52544;48.116;11.660;2023-02-17T05:26:07;96365.50;;;9.72;46.25
65800;BME280;52544;48.116;11.660;2023-02-17T05:28:34;96355.78;;;9.73;46.71
65800;BME280;52544;48.116;11.660;2023-02-17T05:31:00;96351.66;;;9.82;46.50
65800;BME280;52544;48.116;11.660;2023-02-17T05:33:25;96359.16;;;9.88;46.57
65800;BME280;52544;48.116;11.660;2023-02-17T05:35:51;96355.16;;;9.82;46.87
65800;BME280;52544;48.116;11.660;2023-02-17T05:38:16;96364.44;;;9.88;46.29
65800;BME280;52544;48.116;11.660;2023-02-17T05:40:42;96364.75;;;9.83;46.45
65800;BME280;52544;48.116;11.660;2023-02-17T05:43:07;96363.50;;;9.76;47.12
65800;BME280;52544;48.116;11.660;2023-02-17T05:45:33;96362.56;;;9.77;46.96
65800;BME280;52544;48.116;11.660;2023-02-17T05:47:58;96360.00;;;9.75;46.83
65800;BME280;52544;48.116;11.660;2023-02-17T05:50:23;96367.53;;;9.82;46.68
65800;BME280;52544;48.116;11.660;2023-02-17T05:52:49;96369.28;;;9.81;46.44
65800;BME280;52544;48.116;11.660;2023-02-17T05:55:14;96371.94;;;9.81;46.84
65800;BME280;52544;48.116;11.660;2023-02-17T05:57:40;96365.94;;;9.79;46.53
65800;BME280;52544;48.116;11.660;2023-02-17T06:00:09;96369.22;;;9.83;46.18
65800;BME280;52544;48.116;11.660;2023-02-17T06:02:35;96365.59;;;9.84;45.90
65800;BME280;52544;48.116;11.660;2023-02-17T06:05:00;96363.72;;;9.86;46.21
65800;BME280;52544;48.116;11.660;2023-02-17T06:07:26;96381.25;;;9.87;46.42
65800;BME280;52544;48.116;11.660;2023-02-17T06:09:51;96376.59;;;9.90;46.15
65800;BME280;52544;48.116;11.660;2023-02-17T06:12:16;96379.16;;;9.79;46.27
65800;BME280;52544;48.116;11.660;2023-02-17T06:14:42;96379.88;;;9.81;46.49
65800;BME280;52544;48.116;11.660;2023-02-17T06:17:07;96378.81;;;9.84;46.52
65800;BME280;52544;48.116;11.660;2023-02-17T06:19:33;96378.63;;;9.87;46.26
65800;BME280;52544;48.116;11.660;2023-02-17T06:21:58;96389.06;;;9.88;46.54
65800;BME280;52544;48.116;11.660;2023-02-17T06:24:23;96379.78;;;9.83;46.73
65800;BME280;52544;48.116;11.660;2023-02-17T06:26:52;96390.75;;;9.89;46.79
65800;BME280;52544;48.116;11.660;2023-02-17T06:29:17;96386.34;;;9.90;46.75
65800;BME280;52544;48.116;11.660;2023-02-17T06:31:42;96389.91;;;9.89;46.84
65800;BME280;52544;48.116;11.660;2023-02-17T06:34:08;96386.63;;;9.98;47.02
65800;BME280;52544;48.116;11.660;2023-02-17T06:36:33;96383.69;;;10.02;47.13
65800;BME280;52544;48.116;11.660;2023-02-17T06:38:59;96397.00;;;10.01;49.15
65800;BME280;52544;48.116;11.660;2023-02-17T06:41:24;96399.75;;;9.99;49.56
65800;BME280;52544;48.116;11.660;2023-02-17T06:43:50;96398.28;;;9.95;50.83
65800;BME280;52544;48.116;11.660;2023-02-17T06:46:15;96403.56;;;9.83;51.46
65800;BME280;52544;48.116;11.660;2023-02-17T06:48:40;96396.81;;;9.79;51.54
65800;BME280;52544;48.116;11.660;2023-02-17T06:51:06;96403.47;;;9.71;53.76
65800;BME280;52544;48.116;11.660;2023-02-17T06:53:31;96397.66;;;9.66;55.57
65800;BME280;52544;48.116;11.660;2023-02-17T06:55:57;96389.53;;;9.57;55.78
65800;BME280;52544;48.116;11.660;2023-02-17T06:58:22;96399.56;;;9.64;54.51
65800;BME280;52544;48.116;11.660;2023-02-17T07:00:48;96397.84;;;9.63;54.26
65800;BME280;52544;48.116;11.660;2023-02-17T07:03:13;96393.84;;;9.70;53.44
65800;BME280;52544;48.116;11.660;2023-02-17T07:05:39;96395.13;;;9.77;53.42
65800;BME280;52544;48.116;11.660;2023-02-17T07:08:04;96385.06;;;9.83;53.37
65800;BME280;52544;48.116;11.660;2023-02-17T07:10:30;96383.06;;;9.86;53.13
65800;BME280;52544;48.116;11.660;2023-02-17T07:12:55;96372.69;;;9.96;52.69
65800;BME280;52544;48.116;11.660;2023-02-17T07:15:21;96379.00;;;10.06;53.03
65800;BME280;52544;48.116;11.660;2023-02-17T07:17:46;96371.38;;;10.01;53.41
65800;BME280;52544;48.116;11.660;2023-02-17T07:20:12;96373.38;;;10.11;53.38
65800;BME280;52544;48.116;11.660;2023-02-17T07:22:37;96374.97;;;10.13;54.15
65800;BME280;52544;48.116;11.660;2023-02-17T07:25:04;96376.97;;;10.22;54.30
65800;BME280;52544;48.116;11.660;2023-02-17T07:27:29;96384.25;;;10.32;54.41
65800;BME280;52544;48.116;11.660;2023-02-17T07:29:56;96380.78;;;10.31;54.46
65800;BME280;52544;48.116;11.660;2023-02-17T07:32:21;96386.03;;;10.44;54.72
65800;BME280;52544;48.116;11.660;2023-02-17T07:34:46;96390.66;;;10.53;54.61
65800;BME280;52544;48.116;11.660;2023-02-17T07:37:12;96388.41;;;10.60;54.23
65800;BME280;52544;48.116;11.660;2023-02-17T07:39:37;96382.78;;;10.64;54.36
65800;BME280;52544;48.116;11.660;2023-02-17T07:42:03;96379.94;;;10.67;54.49
65800;BME280;52544;48.116;11.660;2023-02-17T07:44:30;96389.00;;;10.76;54.21
65800;BME280;52544;48.116;11.660;2023-02-17T07:46:56;96379.25;;;10.76;54.19
65800;BME280;52544;48.116;11.660;2023-02-17T07:49:21;96390.00;;;10.86;53.78
65800;BME280;52544;48.116;11.660;2023-02-17T07:51:46;96385.03;;;10.82;53.89
65800;BME280;52544;48.116;11.660;2023-02-17T07:54:12;96388.94;;;10.89;53.59
65800;BME280;52544;48.116;11.660;2023-02-17T07:56:38;96392.31;;;10.91;53.90
65800;BME280;52544;48.116;11.660;2023-02-17T07:59:08;96391.38;;;10.92;53.59
65800;BME280;52544;48.116;11.660;2023-02-17T08:01:33;96387.75;;;10.93;54.01
65800;BME280;52544;48.116;11.660;2023-02-17T08:03:59;96390.50;;;10.91;53.87
65800;BME280;52544;48.116;11.660;2023-02-17T08:06:25;96390.41;;;10.93;54.10
65800;BME280;52544;48.116;11.660;2023-02-17T08:08:51;96406.06;;;10.96;54.00
65800;BME280;52544;48.116;11.660;2023-02-17T08:11:35;96394.78;;;11.05;54.18
65800;BME280;52544;48.116;11.660;2023-02-17T08:14:22;96392.03;;;11.07;54.33
65800;BME280;52544;48.116;11.660;2023-02-17T08:16:48;96403.94;;;11.12;54.17
65800;BME280;52544;48.116;11.660;2023-02-17T08:19:13;96406.31;;;11.04;54.99
65800;BME280;52544;48.116;11.660;2023-02-17T08:21:39;96391.56;;;11.13;55.19
65800;BME280;52544;48.116;11.660;2023-02-17T08:24:04;96403.72;;;11.15;54.88
65800;BME280;52544;48.116;11.660;2023-02-17T08:26:30;96399.41;;;11.14;55.54
65800;BME280;52544;48.116;11.660;2023-02-17T08:28:55;96391.22;;;11.17;56.04
65800;BME280;52544;48.116;11.660;2023-02-17T08:31:26;96415.78;;;11.19;56.01
65800;BME280;52544;48.116;11.660;2023-02-17T08:33:53;96400.63;;;11.21;56.77
65800;BME280;52544;48.116;11.660;2023-02-17T08:36:19;96404.00;;;11.23;56.32
65800;BME280;52544;48.116;11.660;2023-02-17T08:38:47;96401.22;;;11.25;56.77
65800;BME280;52544;48.116;11.660;2023-02-17T08:41:21;96398.22;;;11.30;56.79
65800;BME280;52544;48.116;11.660;2023-02-17T08:43:48;96412.22;;;11.32;56.58
65800;BME280;52544;48.116;11.660;2023-02-17T08:46:14;96403.44;;;11.31;57.17
65800;BME280;52544;48.116;11.660;2023-02-17T08:48:40;96404.91;;;11.35;57.19
65800;BME280;52544;48.116;11.660;2023-02-17T08:51:06;96419.69;;;11.38;57.63
65800;BME280;52544;48.116;11.660;2023-02-17T08:53:32;96404.31;;;11.43;57.54
65800;BME280;52544;48.116;11.660;2023-02-17T08:55:58;96402.59;;;11.42;57.74
65800;BME280;52544;48.116;11.660;2023-02-17T08:58:23;96410.47;;;11.43;57.97
65800;BME280;52544;48.116;11.660;2023-02-17T09:00:49;96407.22;;;11.51;58.65
65800;BME280;52544;48.116;11.660;2023-02-17T09:03:14;96413.97;;;11.55;58.32
65800;BME280;52544;48.116;11.660;2023-02-17T09:05:40;96417.09;;;11.49;58.65
65800;BME280;52544;48.116;11.660;2023-02-17T09:08:05;96416.13;;;11.50;59.12
65800;BME280;52544;48.116;11.660;2023-02-17T09:10:31;96423.38;;;11.48;59.27
65800;BME280;52544;48.116;11.660;2023-02-17T09:12:56;96418.06;;;11.48;59.53
65800;BME280;52544;48.116;11.660;2023-02-17T09:15:22;96421.81;;;11.57;59.90
65800;BME280;52544;48.116;11.660;2023-02-17T09:17:47;96426.38;;;11.55;60.47
65800;BME280;52544;48.116;11.660;2023-02-17T09:20:13;96419.16;;;11.57;61.04
65800;BME280;52544;48.116;11.660;2023-02-17T09:22:39;96435.88;;;11.46;62.94
65800;BME280;52544;48.116;11.660;2023-02-17T09:25:04;96427.28;;;11.31;66.23
65800;BME280;52544;48.116;11.660;2023-02-17T09:27:30;96436.44;;;11.27;67.70
65800;BME280;52544;48.116;11.660;2023-02-17T09:29:56;96429.03;;;11.19;68.05
65800;BME280;52544;48.116;11.660;2023-02-17T09:32:21;96429.50;;;11.13;68.31
65800;BME280;52544;48.116;11.660;2023-02-17T09:34:47;96426.38;;;11.19;66.89
65800;BME280;52544;48.116;11.660;2023-02-17T09:37:15;96426.25;;;11.21;65.87
65800;BME280;52544;48.116;11.660;2023-02-17T09:39:42;96428.81;;;11.22;65.41
65800;BME280;52544;48.116;11.660;2023-02-17T09:42:17;96436.78;;;11.22;65.86
65800;BME280;52544;48.116;11.660;2023-02-17T09:44:46;96434.03;;;11.35;65.47
65800;BME280;52544;48.116;11.660;2023-02-17T09:47:18;96442.97;;;11.34;65.15
65800;BME280;52544;48.116;11.660;2023-02-17T09:52:34;96435.59;;;11.38;64.90
65800;BME280;52544;48.116;11.660;2023-02-17T09:55:07;96435.25;;;11.42;64.81
65800;BME280;52544;48.116;11.660;2023-02-17T09:57:44;96437.59;;;11.47;64.22
65800;BME280;52544;48.116;11.660;2023-02-17T10:00:17;96422.66;;;11.57;62.83
65800;BME280;52544;48.116;11.660;2023-02-17T10:05:21;96431.84;;;11.75;61.19
65800;BME280;52544;48.116;11.660;2023-02-17T10:10:52;96447.31;;;11.82;61.45
65800;BME280;52544;48.116;11.660;2023-02-17T10:13:21;96434.56;;;11.87;61.05
65800;BME280;52544;48.116;11.660;2023-02-17T10:15:51;96424.66;;;11.89;60.76
65800;BME280;52544;48.116;11.660;2023-02-17T10:18:39;96431.19;;;11.96;61.03
65800;BME280;52544;48.116;11.660;2023-02-17T10:21:19;96424.09;;;12.19;60.47
65800;BME280;52544;48.116;11.660;2023-02-17T10:23:48;96411.06;;;12.49;59.15
65800;BME280;52544;48.116;11.660;2023-02-17T10:29:38;96413.16;;;12.78;57.13
65800;BME280;52544;48.116;11.660;2023-02-17T10:32:23;96417.16;;;12.84;57.21
65800;BME280;52544;48.116;11.660;2023-02-17T10:37:25;96418.63;;;12.65;57.25
65800;BME280;52544;48.116;11.660;2023-02-17T10:39:54;96415.13;;;12.65;57.35
65800;BME280;52544;48.116;11.660;2023-02-17T10:42:24;96415.97;;;12.65;57.46
65800;BME280;52544;48.116;11.660;2023-02-17T10:44:55;96407.91;;;12.67;57.35
65800;BME280;52544;48.116;11.660;2023-02-17T10:47:22;96417.41;;;12.81;56.52
65800;BME280;52544;48.116;11.660;2023-02-17T10:49:50;96402.59;;;12.99;55.35
65800;BME280;52544;48.116;11.660;2023-02-17T10:52:18;96415.31;;;13.39;54.55
65800;BME280;52544;48.116;11.660;2023-02-17T10:54:49;96401.63;;;13.85;53.02
65800;BME280;52544;48.116;11.660;2023-02-17T10:57:18;96403.47;;;14.15;51.52
65800;BME280;52544;48.116;11.660;2023-02-17T10:59:46;96394.81;;;14.23;50.69
65800;BME280;52544;48.116;11.660;2023-02-17T11:02:27;96388.94;;;14.29;50.50
65800;BME280;52544;48.116;11.660;2023-02-17T11:04:57;96398.50;;;14.32;49.85
65800;BME280;52544;48.116;11.660;2023-02-17T11:10:00;96386.28;;;14.69;49.38
65800;BME280;52544;48.116;11.660;2023-02-17T11:12:46;96398.56;;;14.51;49.42
65800;BME280;52544;48.116;11.660;2023-02-17T11:15:18;96386.94;;;14.52;49.50
65800;BME280;52544;48.116;11.660;2023-02-17T11:17:44;96387.31;;;14.47;49.50
65800;BME280;52544;48.116;11.660;2023-02-17T11:22:41;96385.16;;;14.01;50.15
65800;BME280;52544;48.116;11.660;2023-02-17T11:25:27;96386.22;;;13.89;50.87
65800;BME280;52544;48.116;11.660;2023-02-17T11:27:55;96387.38;;;13.96;50.70
65800;BME280;52544;48.116;11.660;2023-02-17T11:30:22;96387.56;;;14.04;50.35
65800;BME280;52544;48.116;11.660;2023-02-17T11:32:48;96380.56;;;14.03;50.44
65800;BME280;52544;48.116;11.660;2023-02-17T11:38:00;96379.31;;;14.07;50.21
65800;BME280;52544;48.116;11.660;2023-02-17T11:40:29;96376.69;;;14.17;50.05
65800;BME280;52544;48.116;11.660;2023-02-17T11:42:59;96370.91;;;14.42;49.71
65800;BME280;52544;48.116;11.660;2023-02-17T11:45:28;96353.19;;;14.62;48.83
65800;BME280;52544;48.116;11.660;2023-02-17T11:48:14;96355.59;;;14.75;48.59
65800;BME280;52544;48.116;11.660;2023-02-17T11:50:58;96371.31;;;14.97;48.40
65800;BME280;52544;48.116;11.660;2023-02-17T11:56:16;96347.28;;;14.49;48.88
65800;BME280;52544;48.116;11.660;2023-02-17T12:02:01;96365.66;;;14.31;50.14
65800;BME280;52544;48.116;11.660;2023-02-17T12:04:41;96360.22;;;14.33;49.94
65800;BME280;52544;48.116;11.660;2023-02-17T12:07:34;96339.94;;;14.41;50.11
65800;BME280;52544;48.116;11.660;2023-02-17T12:21:19;96333.53;;;14.54;50.16
65800;BME280;52544;48.116;11.660;2023-02-17T12:24:04;96348.28;;;14.67;50.14
65800;BME280;52544;48.116;11.660;2023-02-17T12:26:43;96336.00;;;14.95;49.75
65800;BME280;52544;48.116;11.660;2023-02-17T12:29:20;96328.25;;;14.92;50.17
65800;BME280;52544;48.116;11.660;2023-02-17T12:36:57;96319.25;;;14.55;50.93
65800;BME280;52544;48.116;11.660;2023-02-17T12:39:45;96308.53;;;14.45;51.81
65800;BME280;52544;48.116;11.660;2023-02-17T12:42:19;96317.72;;;14.21;52.71
65800;BME280;52544;48.116;11.660;2023-02-17T12:44:54;96310.88;;;14.29;52.48
65800;BME280;52544;48.116;11.660;2023-02-17T12:47:25;96316.06;;;14.30;52.77
65800;BME280;52544;48.116;11.660;2023-02-17T12:50:08;96310.06;;;14.28;52.84
65800;BME280;52544;48.116;11.660;2023-02-17T12:52:43;96327.78;;;14.08;53.44
65800;BME280;52544;48.116;11.660;2023-02-17T12:55:19;96319.59;;;14.00;53.79
65800;BME280;52544;48.116;11.660;2023-02-17T12:57:57;96343.63;;;13.89;55.07
65800;BME280;52544;48.116;11.660;2023-02-17T13:00:38;96328.63;;;13.78;55.93
65800;BME280;52544;48.116;11.660;2023-02-17T13:03:05;96346.41;;;13.78;56.02
65800;BME280;52544;48.116;11.660;2023-02-17T13:05:38;96350.31;;;13.73;56.22
65800;BME280;52544;48.116;11.660;2023-02-17T13:08:09;96350.56;;;13.70;56.02
65800;BME280;52544;48.116;11.660;2023-02-17T13:10:39;96350.06;;;13.56;56.33
65800;BME280;52544;48.116;11.660;2023-02-17T13:13:09;96332.88;;;13.60;56.31
65800;BME280;52544;48.116;11.660;2023-02-17T13:15:43;96324.16;;;13.58;56.44
65800;BME280;52544;48.116;11.660;2023-02-17T13:18:30;96316.59;;;13.53;56.83
65800;BME280;52544;48.116;11.660;2023-02-17T13:24:14;96330.72;;;13.54;57.49
65800;BME280;52544;48.116;11.660;2023-02-17T13:26:41;96331.13;;;13.49;57.34
65800;BME280;52544;48.116;11.660;2023-02-17T13:32:01;96326.25;;;13.33;59.08
65800;BME280;52544;48.116;11.660;2023-02-17T13:34:39;96329.06;;;13.32;59.80
65800;BME280;52544;48.116;11.660;2023-02-17T13:37:37;96331.13;;;13.28;59.76
65800;BME280;52544;48.116;11.660;2023-02-17T13:42:46;96347.47;;;13.23;60.15
65800;BME280;52544;48.116;11.660;2023-02-17T13:45:28;96328.88;;;13.12;60.72
65800;BME280;52544;48.116;11.660;2023-02-17T13:47:56;96339.13;;;13.17;60.63
65800;BME280;52544;48.116;11.660;2023-02-17T13:50:28;96330.88;;;13.20;60.33
65800;BME280;52544;48.116;11.660;2023-02-17T13:52:55;96337.66;;;13.24;60.53
65800;BME280;52544;48.116;11.660;2023-02-17T13:55:21;96328.75;;;13.14;61.01
65800;BME280;52544;48.116;11.660;2023-02-17T13:57:53;96325.25;;;13.13;61.16
65800;BME280;52544;48.116;11.660;2023-02-17T14:00:26;96322.13;;;13.08;61.17
65800;BME280;52544;48.116;11.660;2023-02-17T14:08:12;96319.75;;;13.05;62.19
65800;BME280;52544;48.116;11.660;2023-02-17T14:10:39;96318.75;;;13.06;62.80
65800;BME280;52544;48.116;11.660;2023-02-17T14:13:08;96326.50;;;13.09;62.57
65800;BME280;52544;48.116;11.660;2023-02-17T14:15:34;96326.94;;;13.14;62.26
65800;BME280;52544;48.116;11.660;2023-02-17T14:18:11;96333.47;;;13.10;61.86
65800;BME280;52544;48.116;11.660;2023-02-17T14:20:37;96339.78;;;13.09;61.79
65800;BME280;52544;48.116;11.660;2023-02-17T14:23:11;96337.50;;;13.05;62.23
65800;BME280;52544;48.116;11.660;2023-02-17T14:25:39;96335.69;;;13.05;62.06
65800;BME280;52544;48.116;11.660;2023-02-17T14:28:20;96346.56;;;13.02;61.69